createdAt,value
2018-09-06T00:00:01.441Z,14.70
2018-09-06T00:00:22.099Z,14.60
2018-09-06T00:00:42.035Z,15.20
2018-09-06T00:01:02.636Z,15.30
2018-09-06T00:01:22.790Z,15.50
2018-09-06T00:01:42.638Z,15.60
2018-09-06T00:02:03.339Z,15.20
2018-09-06T00:02:23.482Z,15.10
2018-09-06T00:02:43.390Z,14.70
2018-09-06T00:03:04.062Z,14.70
2018-09-06T00:03:24.201Z,14.80
2018-09-06T00:03:44.053Z,15.30
2018-09-06T00:04:04.745Z,15.00
2018-09-06T00:04:24.795Z,15.00
2018-09-06T00:04:44.658Z,15.10
2018-09-06T00:05:05.357Z,15.40
2018-09-06T00:05:25.204Z,16.00
2018-09-06T00:05:45.613Z,16.60
2018-09-06T00:06:06.351Z,17.00
2018-09-06T00:06:26.248Z,15.90
2018-09-06T00:06:46.613Z,15.00
2018-09-06T00:07:07.284Z,15.20
2018-09-06T00:07:27.132Z,15.40
2018-09-06T00:07:47.523Z,15.90
2018-09-06T00:08:07.901Z,15.60
2018-09-06T00:08:28.254Z,15.90
2018-09-06T00:08:48.951Z,15.50
2018-09-06T00:09:08.851Z,15.30
2018-09-06T00:09:29.196Z,15.10
2018-09-06T00:09:49.901Z,15.30
2018-09-06T00:10:09.758Z,15.20
2018-09-06T00:10:30.160Z,14.90
2018-09-06T00:10:50.863Z,15.30
2018-09-06T00:11:10.732Z,14.80
2018-09-06T00:11:31.081Z,16.20
2018-09-06T00:11:51.712Z,15.60
2018-09-06T00:12:11.574Z,15.70
2018-09-06T00:12:32.132Z,16.30
2018-09-06T00:12:52.332Z,16.90
2018-09-06T00:13:12.186Z,17.20
2018-09-06T00:13:32.662Z,15.10
2018-09-06T00:13:53.840Z,15.00
2018-09-06T00:14:13.401Z,15.10
2018-09-06T00:14:33.528Z,15.50
2018-09-06T00:14:53.673Z,14.90
2018-09-06T00:15:13.794Z,14.30
2018-09-06T00:15:33.991Z,14.40
2018-09-06T00:15:53.978Z,15.50
2018-09-06T00:16:14.326Z,15.60
2018-09-06T00:16:35.021Z,15.00
2018-09-06T00:16:54.860Z,14.20
2018-09-06T00:17:15.409Z,14.20
2018-09-06T00:17:35.619Z,14.60
2018-09-06T00:17:55.468Z,14.50
2018-09-06T00:18:15.935Z,14.20
2018-09-06T00:18:36.596Z,14.50
2018-09-06T00:18:56.437Z,14.50
2018-09-06T00:19:16.795Z,14.70
2018-09-06T00:19:37.449Z,14.20
2018-09-06T00:19:57.320Z,14.70
2018-09-06T00:20:17.685Z,14.50
2018-09-06T00:20:38.329Z,14.70
2018-09-06T00:20:58.191Z,15.30
2018-09-06T00:21:18.905Z,15.10
2018-09-06T00:21:39.146Z,15.40
2018-09-06T00:21:59.009Z,14.90
2018-09-06T00:22:19.708Z,15.70
2018-09-06T00:22:39.573Z,15.80
2018-09-06T00:23:00.003Z,16.30
2018-09-06T00:23:20.708Z,15.90
2018-09-06T00:23:40.549Z,15.70
2018-09-06T00:24:00.901Z,15.20
2018-09-06T00:24:21.588Z,15.40
2018-09-06T00:24:41.436Z,15.20
2018-09-06T00:25:02.067Z,15.10
2018-09-06T00:25:22.212Z,14.80
2018-09-06T00:25:42.066Z,15.40
2018-09-06T00:26:02.690Z,15.50
2018-09-06T00:26:22.833Z,16.20
2018-09-06T00:26:42.688Z,16.20
2018-09-06T00:27:03.385Z,16.30
2018-09-06T00:27:23.530Z,15.70
2018-09-06T00:27:43.612Z,15.20
2018-09-06T00:28:03.865Z,15.50
2018-09-06T00:28:24.007Z,15.60
2018-09-06T00:28:43.860Z,15.90
2018-09-06T00:29:04.505Z,15.60
2018-09-06T00:29:24.738Z,15.60
2018-09-06T00:29:44.587Z,15.60
2018-09-06T00:30:05.301Z,16.30
2018-09-06T00:30:25.291Z,16.70
2018-09-06T00:30:45.648Z,16.50
2018-09-06T00:31:06.271Z,16.50
2018-09-06T00:31:26.196Z,16.90
2018-09-06T00:31:46.545Z,16.60
2018-09-06T00:32:07.212Z,15.90
2018-09-06T00:32:27.321Z,15.10
2018-09-06T00:32:47.175Z,15.10
2018-09-06T00:33:07.811Z,15.40
2018-09-06T00:33:27.688Z,15.40
2018-09-06T00:33:48.224Z,15.30
2018-09-06T00:34:08.225Z,15.40
2018-09-06T00:34:28.145Z,15.00
2018-09-06T00:34:48.865Z,15.20
2018-09-06T00:35:09.099Z,15.60
2018-09-06T00:35:28.950Z,16.00
2018-09-06T00:35:49.675Z,15.60
2018-09-06T00:36:09.828Z,15.30
2018-09-06T00:36:29.800Z,15.50
2018-09-06T00:36:50.530Z,15.60
2018-09-06T00:37:10.674Z,15.00
2018-09-06T00:37:30.527Z,14.60
2018-09-06T00:37:51.230Z,14.80
2018-09-06T00:38:11.345Z,15.70
2018-09-06T00:38:31.216Z,16.00
2018-09-06T00:39:11.629Z,16.80
2018-09-06T00:39:31.998Z,17.30
2018-09-06T00:39:52.643Z,16.30
2018-09-06T00:40:12.509Z,16.10
2018-09-06T00:40:32.873Z,15.70
2018-09-06T00:40:53.537Z,16.20
2018-09-06T00:41:13.421Z,16.00
2018-09-06T00:41:34.135Z,15.90
2018-09-06T00:41:54.369Z,15.30
2018-09-06T00:42:14.240Z,15.20
2018-09-06T00:42:34.939Z,15.70
2018-09-06T00:42:54.789Z,16.50
2018-09-06T00:43:15.162Z,17.10
2018-09-06T00:43:35.894Z,16.80
2018-09-06T00:43:55.761Z,16.50
2018-09-06T00:44:16.095Z,15.40
2018-09-06T00:44:36.531Z,15.70
2018-09-06T00:44:56.887Z,16.00
2018-09-06T00:45:17.263Z,16.10
2018-09-06T00:45:37.896Z,18.50
2018-09-06T00:45:57.741Z,19.10
2018-09-06T00:46:18.410Z,16.50
2018-09-06T00:46:38.559Z,16.40
2018-09-06T00:46:58.411Z,16.20
2018-09-06T00:47:19.101Z,16.50
2018-09-06T00:47:39.105Z,16.20
2018-09-06T00:47:59.442Z,16.40
2018-09-06T00:48:20.157Z,16.40
2018-09-06T00:48:40.014Z,16.60
2018-09-06T00:49:00.365Z,16.00
2018-09-06T00:49:21.138Z,15.30
2018-09-06T00:49:40.994Z,15.80
2018-09-06T00:50:01.514Z,16.50
2018-09-06T00:50:21.715Z,16.70
2018-09-06T00:50:41.561Z,17.00
2018-09-06T00:51:01.913Z,16.80
2018-09-06T00:51:22.560Z,16.90
2018-09-06T00:51:42.414Z,16.00
2018-09-06T00:52:03.074Z,16.10
2018-09-06T00:52:23.236Z,16.00
2018-09-06T00:52:43.088Z,16.10
2018-09-06T00:53:03.733Z,16.00
2018-09-06T00:53:24.007Z,16.50
2018-09-06T00:53:43.860Z,17.50
2018-09-06T00:54:04.580Z,17.80
2018-09-06T00:54:24.600Z,18.90
2018-09-06T00:54:44.446Z,17.00
2018-09-06T00:55:05.099Z,16.40
2018-09-06T00:55:25.001Z,15.80
2018-09-06T00:55:45.349Z,15.80
2018-09-06T00:56:06.068Z,16.20
2018-09-06T00:56:25.920Z,16.50
2018-09-06T00:56:46.269Z,17.20
2018-09-06T00:57:06.953Z,16.50
2018-09-06T00:57:26.806Z,16.20
2018-09-06T00:57:47.165Z,15.80
2018-09-06T00:58:07.802Z,16.30
2018-09-06T00:58:27.659Z,16.70
2018-09-06T00:58:48.113Z,15.80
2018-09-06T00:59:08.646Z,15.90
2018-09-06T00:59:28.488Z,15.90
2018-09-06T00:59:49.189Z,16.90
2018-09-06T01:00:09.500Z,17.00
2018-09-06T01:00:29.350Z,17.50
2018-09-06T01:00:50.051Z,16.80
2018-09-06T01:01:09.898Z,16.40
2018-09-06T01:01:30.241Z,16.50
2018-09-06T01:01:50.959Z,16.50
2018-09-06T01:02:11.011Z,16.20
2018-09-06T01:02:30.872Z,16.20
2018-09-06T01:02:51.522Z,16.20
2018-09-06T01:03:11.367Z,16.50
2018-09-06T01:03:31.719Z,16.50
2018-09-06T01:03:52.369Z,16.80
2018-09-06T01:04:12.231Z,16.90
2018-09-06T01:04:32.667Z,16.40
2018-09-06T01:04:53.322Z,16.80
2018-09-06T01:05:13.237Z,16.70
2018-09-06T01:05:33.947Z,17.10
2018-09-06T01:05:54.056Z,16.40
2018-09-06T01:06:13.910Z,16.70
2018-09-06T01:06:34.603Z,16.10
2018-09-06T01:07:14.513Z,17.10
2018-09-06T01:07:35.211Z,16.80
2018-09-06T01:07:55.060Z,17.20
2018-09-06T01:08:15.415Z,17.60
2018-09-06T01:08:36.119Z,18.10
2018-09-06T01:08:55.996Z,17.80
2018-09-06T01:09:16.333Z,16.90
2018-09-06T01:09:37.020Z,16.40
2018-09-06T01:09:56.879Z,15.70
2018-09-06T01:10:17.501Z,16.20
2018-09-06T01:10:37.652Z,16.80
2018-09-06T01:10:57.506Z,17.10
2018-09-06T01:11:17.867Z,17.10
2018-09-06T01:11:38.512Z,16.80
2018-09-06T01:11:58.356Z,16.70
2018-09-06T01:12:19.098Z,17.20
2018-09-06T01:12:39.315Z,17.20
2018-09-06T01:12:59.171Z,17.50
2018-09-06T01:13:19.910Z,17.50
2018-09-06T01:13:39.844Z,17.80
2018-09-06T01:14:00.199Z,17.50
2018-09-06T01:14:20.921Z,16.70
2018-09-06T01:14:40.777Z,16.50
2018-09-06T01:15:01.132Z,16.50
2018-09-06T01:15:21.875Z,16.80
2018-09-06T01:15:41.789Z,17.20
2018-09-06T01:16:02.430Z,17.40
2018-09-06T01:16:22.600Z,17.70
2018-09-06T01:16:42.447Z,16.60
2018-09-06T01:17:03.146Z,17.60
2018-09-06T01:17:23.304Z,18.70
2018-09-06T01:17:43.155Z,19.10
2018-09-06T01:18:03.910Z,17.40
2018-09-06T01:18:24.043Z,16.90
2018-09-06T01:18:43.893Z,17.10
2018-09-06T01:19:04.598Z,17.50
2018-09-06T01:19:24.745Z,17.40
2018-09-06T01:19:44.584Z,17.50
2018-09-06T01:20:05.228Z,17.40
2018-09-06T01:20:25.098Z,17.80
2018-09-06T01:20:45.477Z,17.80
2018-09-06T01:21:06.169Z,18.20
2018-09-06T01:21:26.019Z,18.40
2018-09-06T01:21:46.378Z,19.30
2018-09-06T01:22:07.088Z,18.70
2018-09-06T01:22:26.933Z,18.10
2018-09-06T01:22:47.366Z,17.50
2018-09-06T01:23:08.009Z,17.60
2018-09-06T01:23:27.867Z,17.30
2018-09-06T01:23:48.484Z,17.30
2018-09-06T01:24:08.336Z,17.50
2018-09-06T01:24:28.704Z,17.60
2018-09-06T01:24:49.429Z,17.70
2018-09-06T01:25:09.295Z,17.90
2018-09-06T01:25:50.065Z,17.80
2018-09-06T01:26:10.000Z,17.20
2018-09-06T01:26:30.360Z,17.40
2018-09-06T01:26:51.025Z,17.50
2018-09-06T01:27:10.876Z,17.70
2018-09-06T01:27:31.337Z,17.60
2018-09-06T01:27:52.053Z,17.50
2018-09-06T01:28:11.902Z,17.30
2018-09-06T01:28:32.260Z,17.20
2018-09-06T01:28:52.900Z,17.60
2018-09-06T01:29:12.749Z,17.30
2018-09-06T01:29:33.355Z,17.80
2018-09-06T01:29:53.492Z,17.60
2018-09-06T01:30:13.354Z,17.90
2018-09-06T01:30:34.125Z,17.10
2018-09-06T01:30:54.266Z,16.80
2018-09-06T01:31:14.155Z,16.40
2018-09-06T01:31:34.920Z,17.00
2018-09-06T01:31:54.778Z,18.50
2018-09-06T01:32:15.188Z,19.10
2018-09-06T01:32:35.965Z,18.70
2018-09-06T01:32:55.823Z,17.60
2018-09-06T01:33:16.171Z,17.50
2018-09-06T01:33:36.844Z,17.40
2018-09-06T01:33:56.696Z,17.80
2018-09-06T01:34:17.057Z,18.60
2018-09-06T01:34:37.725Z,18.40
2018-09-06T01:34:57.583Z,18.20
2018-09-06T01:35:17.988Z,17.80
2018-09-06T01:35:38.631Z,18.00
2018-09-06T01:35:58.499Z,18.20
2018-09-06T01:36:19.204Z,18.70
2018-09-06T01:36:39.127Z,18.40
2018-09-06T01:36:59.682Z,18.80
2018-09-06T01:37:19.893Z,18.60
2018-09-06T01:37:39.754Z,19.30
2018-09-06T01:38:00.107Z,19.20
2018-09-06T01:38:20.869Z,18.70
2018-09-06T01:38:40.692Z,19.20
2018-09-06T01:39:01.044Z,19.50
2018-09-06T01:39:21.695Z,19.80
2018-09-06T01:39:41.541Z,19.40
2018-09-06T01:40:01.981Z,19.30
2018-09-06T01:40:22.621Z,19.10
2018-09-06T01:40:42.736Z,19.10
2018-09-06T01:41:02.916Z,18.40
2018-09-06T01:41:23.058Z,17.90
2018-09-06T01:41:42.931Z,17.60
2018-09-06T01:42:03.514Z,18.20
2018-09-06T01:42:23.661Z,18.30
2018-09-06T01:42:43.521Z,18.50
2018-09-06T01:43:04.227Z,18.00
2018-09-06T01:43:24.219Z,18.10
2018-09-06T01:43:44.560Z,17.70
2018-09-06T01:44:05.295Z,17.60
2018-09-06T01:44:25.406Z,18.30
2018-09-06T01:44:45.259Z,18.30
2018-09-06T01:45:06.005Z,18.60
2018-09-06T01:45:25.865Z,17.80
2018-09-06T01:45:46.218Z,18.20
2018-09-06T01:46:06.905Z,17.80
2018-09-06T01:46:26.762Z,18.50
2018-09-06T01:46:47.125Z,18.90
2018-09-06T01:47:07.759Z,19.40
2018-09-06T01:47:27.593Z,19.30
2018-09-06T01:47:48.016Z,19.20
2018-09-06T01:48:08.384Z,18.50
2018-09-06T01:48:28.732Z,17.90
2018-09-06T01:48:49.422Z,17.20
2018-09-06T01:49:09.273Z,17.20
2018-09-06T01:49:29.619Z,17.20
2018-09-06T01:49:50.320Z,18.00
2018-09-06T01:50:10.178Z,18.10
2018-09-06T01:50:30.522Z,18.00
2018-09-06T01:50:51.217Z,18.20
2018-09-06T01:51:11.070Z,18.70
2018-09-06T01:51:31.437Z,19.50
2018-09-06T01:51:52.106Z,19.80
2018-09-06T01:52:12.172Z,19.70
2018-09-06T01:52:32.062Z,19.50
2018-09-06T01:52:52.708Z,19.30
2018-09-06T01:53:12.553Z,19.10
2018-09-06T01:53:33.025Z,19.00
2018-09-06T01:53:53.676Z,18.80
2018-09-06T01:54:13.532Z,19.70
2018-09-06T01:54:34.237Z,19.10
2018-09-06T01:54:54.250Z,19.50
2018-09-06T01:55:14.425Z,18.50
2018-09-06T01:55:34.665Z,19.30
2018-09-06T01:55:54.608Z,18.30
2018-09-06T01:56:14.977Z,18.50
2018-09-06T01:56:35.682Z,18.20
2018-09-06T01:56:55.655Z,18.50
2018-09-06T01:57:16.064Z,18.20
2018-09-06T01:57:36.733Z,18.50
2018-09-06T01:57:56.659Z,19.10
2018-09-06T01:58:17.049Z,20.10
2018-09-06T01:58:37.701Z,19.70
2018-09-06T01:58:57.545Z,19.40
2018-09-06T01:59:18.044Z,18.60
2018-09-06T01:59:38.694Z,18.60
2018-09-06T01:59:58.553Z,18.40
2018-09-06T02:00:19.291Z,19.20
2018-09-06T02:00:39.297Z,19.30
2018-09-06T02:00:59.150Z,18.90
2018-09-06T02:01:19.866Z,17.70
2018-09-06T02:01:39.723Z,17.80
2018-09-06T02:02:00.083Z,17.60
2018-09-06T02:02:20.813Z,18.00
2018-09-06T02:02:40.670Z,18.10
2018-09-06T02:03:01.076Z,19.20
2018-09-06T02:03:21.738Z,19.60
2018-09-06T02:03:41.680Z,19.30
2018-09-06T02:04:02.309Z,18.50
2018-09-06T02:04:22.462Z,19.00
2018-09-06T02:04:42.316Z,19.20
2018-09-06T02:05:22.963Z,18.60
2018-09-06T02:05:42.819Z,18.40
2018-09-06T02:06:03.513Z,18.10
2018-09-06T02:06:23.670Z,17.30
2018-09-06T02:06:43.552Z,17.40
2018-09-06T02:07:04.263Z,18.30
2018-09-06T02:07:24.427Z,18.80
2018-09-06T02:07:44.280Z,18.90
2018-09-06T02:08:04.970Z,18.70
2018-09-06T02:08:24.817Z,18.40
2018-09-06T02:08:45.202Z,18.20
2018-09-06T02:09:05.950Z,18.00
2018-09-06T02:09:25.817Z,18.40
2018-09-06T02:09:46.152Z,18.20
2018-09-06T02:10:06.792Z,18.40
2018-09-06T02:10:26.673Z,18.40
2018-09-06T02:10:47.140Z,18.20
2018-09-06T02:11:07.781Z,18.60
2018-09-06T02:11:27.659Z,19.70
2018-09-06T02:11:48.082Z,19.60
2018-09-06T02:12:08.886Z,18.80
2018-09-06T02:12:28.743Z,18.80
2018-09-06T02:12:49.453Z,19.00
2018-09-06T02:13:09.436Z,18.30
2018-09-06T02:13:29.789Z,18.30
2018-09-06T02:13:50.483Z,18.40
2018-09-06T02:14:10.460Z,18.30
2018-09-06T02:14:30.803Z,18.30
2018-09-06T02:15:11.391Z,20.50
2018-09-06T02:15:31.238Z,20.30
2018-09-06T02:15:51.906Z,18.30
2018-09-06T02:16:11.751Z,18.20
2018-09-06T02:16:32.124Z,17.70
2018-09-06T02:16:52.761Z,18.00
2018-09-06T02:17:12.600Z,18.60
2018-09-06T02:17:33.001Z,19.00
2018-09-06T02:17:53.646Z,19.50
2018-09-06T02:18:13.504Z,19.10
2018-09-06T02:18:34.260Z,19.40
2018-09-06T02:18:54.275Z,19.10
2018-09-06T02:19:14.195Z,19.50
2018-09-06T02:19:34.932Z,19.80
2018-09-06T02:19:54.861Z,19.30
2018-09-06T02:20:15.489Z,18.60
2018-09-06T02:20:35.714Z,18.10
2018-09-06T02:20:55.566Z,18.50
2018-09-06T02:21:15.951Z,18.80
2018-09-06T02:21:36.608Z,18.60
2018-09-06T02:21:56.466Z,19.10
2018-09-06T02:22:16.818Z,19.00
2018-09-06T02:22:37.474Z,19.10
2018-09-06T02:22:57.334Z,18.40
2018-09-06T02:23:17.916Z,18.20
2018-09-06T02:23:38.052Z,17.80
2018-09-06T02:23:57.906Z,17.50
2018-09-06T02:24:18.607Z,18.00
2018-09-06T02:24:38.690Z,17.40
2018-09-06T02:24:58.536Z,17.90
2018-09-06T02:25:19.255Z,17.40
2018-09-06T02:25:39.529Z,18.30
2018-09-06T02:25:59.379Z,19.20
2018-09-06T02:26:20.110Z,19.10
2018-09-06T02:26:39.974Z,19.20
2018-09-06T02:27:00.319Z,18.80
2018-09-06T02:27:20.947Z,19.00
2018-09-06T02:27:40.794Z,19.30
2018-09-06T02:28:01.154Z,18.40
2018-09-06T02:28:21.842Z,19.00
2018-09-06T02:28:41.775Z,18.90
2018-09-06T02:29:02.443Z,19.50
2018-09-06T02:29:22.588Z,18.90
2018-09-06T02:29:42.544Z,19.00
2018-09-06T02:30:03.213Z,19.70
2018-09-06T02:30:23.356Z,19.80
2018-09-06T02:30:43.196Z,19.90
2018-09-06T02:31:03.893Z,20.00
2018-09-06T02:31:24.042Z,20.40
2018-09-06T02:31:43.920Z,20.30
2018-09-06T02:32:04.647Z,19.60
2018-09-06T02:32:24.498Z,19.10
2018-09-06T02:32:44.864Z,18.90
2018-09-06T02:33:05.566Z,19.10
2018-09-06T02:33:25.429Z,18.80
2018-09-06T02:33:45.779Z,18.10
2018-09-06T02:34:06.487Z,18.20
2018-09-06T02:34:26.361Z,19.10
2018-09-06T02:34:46.720Z,20.20
2018-09-06T02:35:07.400Z,19.50
2018-09-06T02:35:27.256Z,19.40
2018-09-06T02:35:47.625Z,19.00
2018-09-06T02:36:08.240Z,19.30
2018-09-06T02:36:28.105Z,19.10
2018-09-06T02:36:48.798Z,19.60
2018-09-06T02:37:09.080Z,19.60
2018-09-06T02:37:29.156Z,19.30
2018-09-06T02:37:49.403Z,19.00
2018-09-06T02:38:09.475Z,18.50
2018-09-06T02:38:29.329Z,19.00
2018-09-06T02:38:50.067Z,18.90
2018-09-06T02:39:09.919Z,19.20
2018-09-06T02:39:30.286Z,19.80
2018-09-06T02:39:50.984Z,20.00
2018-09-06T02:40:10.849Z,20.10
2018-09-06T02:40:31.196Z,18.90
2018-09-06T02:40:51.859Z,19.00
2018-09-06T02:41:11.706Z,18.60
2018-09-06T02:41:32.222Z,18.60
2018-09-06T02:41:52.420Z,19.00
2018-09-06T02:42:12.268Z,18.80
2018-09-06T02:42:32.627Z,19.30
2018-09-06T02:42:53.280Z,19.20
2018-09-06T02:43:13.146Z,19.60
2018-09-06T02:43:33.847Z,19.90
2018-09-06T02:43:53.957Z,19.50
2018-09-06T02:44:13.819Z,20.10
2018-09-06T02:44:34.578Z,19.80
2018-09-06T02:44:54.720Z,19.70
2018-09-06T02:45:14.877Z,19.50
2018-09-06T02:45:35.080Z,19.80
2018-09-06T02:45:54.968Z,19.60
2018-09-06T02:46:15.331Z,19.60
2018-09-06T02:46:36.013Z,19.30
2018-09-06T02:46:56.022Z,19.90
2018-09-06T02:47:16.018Z,19.70
2018-09-06T02:47:36.700Z,19.70
2018-09-06T02:47:56.591Z,19.60
2018-09-06T02:48:17.181Z,19.60
2018-09-06T02:48:37.352Z,20.00
2018-09-06T02:48:57.354Z,19.70
2018-09-06T02:49:17.700Z,18.90
2018-09-06T02:49:38.352Z,18.40
2018-09-06T02:49:58.226Z,18.60
2018-09-06T02:50:18.912Z,18.60
2018-09-06T02:50:39.100Z,19.30
2018-09-06T02:50:58.961Z,19.20
2018-09-06T02:51:19.648Z,19.70
2018-09-06T02:51:39.515Z,19.80
2018-09-06T02:51:59.862Z,19.90
2018-09-06T02:52:20.597Z,19.60
2018-09-06T02:52:40.458Z,19.60
2018-09-06T02:53:00.834Z,19.10
2018-09-06T02:53:21.523Z,19.20
2018-09-06T02:53:41.400Z,18.10
2018-09-06T02:54:01.851Z,18.20
2018-09-06T02:54:22.443Z,19.20
2018-09-06T02:54:42.307Z,19.40
2018-09-06T02:55:02.967Z,19.10
2018-09-06T02:55:23.106Z,18.40
2018-09-06T02:55:42.963Z,18.70
2018-09-06T02:56:03.549Z,18.50
2018-09-06T02:56:23.705Z,18.90
2018-09-06T02:56:43.567Z,19.20
2018-09-06T02:57:04.278Z,20.40
2018-09-06T02:57:24.287Z,20.30
2018-09-06T02:57:44.136Z,20.80
2018-09-06T02:58:04.861Z,19.60
2018-09-06T02:58:24.821Z,19.90
2018-09-06T02:59:05.235Z,20.40
2018-09-06T02:59:25.587Z,20.30
2018-09-06T02:59:45.947Z,19.80
2018-09-06T03:00:06.651Z,19.40
2018-09-06T03:00:26.526Z,19.50
2018-09-06T03:00:46.896Z,19.20
2018-09-06T03:01:07.560Z,18.50
2018-09-06T03:01:27.416Z,18.40
2018-09-06T03:01:47.781Z,19.20
2018-09-06T03:02:08.374Z,20.40
2018-09-06T03:02:28.477Z,20.90
2018-09-06T03:02:48.711Z,19.90
2018-09-06T03:03:08.564Z,19.30
2018-09-06T03:03:28.910Z,18.70
2018-09-06T03:03:49.603Z,19.10
2018-09-06T03:04:09.902Z,18.60
2018-09-06T03:04:29.753Z,18.80
2018-09-06T03:04:50.460Z,18.60
2018-09-06T03:05:10.322Z,19.10
2018-09-06T03:05:30.673Z,19.50
2018-09-06T03:05:51.329Z,19.90
2018-09-06T03:06:11.186Z,20.00
2018-09-06T03:06:31.546Z,19.80
2018-09-06T03:06:52.209Z,20.00
2018-09-06T03:07:12.057Z,20.20
2018-09-06T03:07:32.420Z,19.40
2018-09-06T03:07:53.065Z,19.30
2018-09-06T03:08:13.028Z,19.40
2018-09-06T03:08:33.688Z,19.30
2018-09-06T03:08:54.030Z,19.10
2018-09-06T03:09:14.122Z,19.10
2018-09-06T03:09:34.353Z,20.60
2018-09-06T03:09:54.290Z,21.20
2018-09-06T03:10:14.928Z,21.10
2018-09-06T03:10:35.132Z,20.50
2018-09-06T03:10:55.015Z,20.60
2018-09-06T03:11:15.375Z,21.00
2018-09-06T03:11:36.100Z,21.20
2018-09-06T03:11:55.990Z,21.50
2018-09-06T03:12:16.589Z,20.60
2018-09-06T03:12:36.859Z,20.20
2018-09-06T03:12:56.765Z,19.40
2018-09-06T03:13:17.137Z,19.80
2018-09-06T03:13:37.775Z,19.70
2018-09-06T03:13:57.632Z,19.30
2018-09-06T03:14:18.103Z,18.80
2018-09-06T03:14:38.755Z,18.50
2018-09-06T03:14:58.643Z,18.80
2018-09-06T03:15:19.403Z,18.70
2018-09-06T03:15:39.340Z,19.60
2018-09-06T03:15:59.691Z,20.60
2018-09-06T03:16:20.424Z,20.40
2018-09-06T03:16:40.272Z,20.00
2018-09-06T03:17:00.654Z,19.60
2018-09-06T03:17:21.318Z,18.90
2018-09-06T03:18:01.204Z,19.40
2018-09-06T03:18:21.886Z,20.30
2018-09-06T03:18:41.751Z,20.40
2018-09-06T03:19:02.355Z,20.50
2018-09-06T03:19:22.527Z,21.00
2018-09-06T03:19:42.375Z,20.50
2018-09-06T03:20:03.042Z,20.40
2018-09-06T03:20:23.188Z,20.50
2018-09-06T03:20:43.147Z,20.40
2018-09-06T03:21:03.880Z,20.60
2018-09-06T03:21:24.026Z,20.40
2018-09-06T03:21:43.889Z,20.50
2018-09-06T03:22:04.612Z,20.50
2018-09-06T03:22:24.469Z,21.10
2018-09-06T03:22:44.833Z,21.20
2018-09-06T03:23:05.483Z,21.00
2018-09-06T03:23:25.334Z,20.70
2018-09-06T03:23:45.685Z,20.40
2018-09-06T03:24:06.379Z,20.40
2018-09-06T03:24:26.229Z,19.70
2018-09-06T03:24:46.572Z,19.40
2018-09-06T03:25:07.275Z,19.30
2018-09-06T03:25:27.130Z,19.20
2018-09-06T03:25:47.484Z,19.80
2018-09-06T03:26:08.075Z,20.30
2018-09-06T03:26:27.937Z,21.00
2018-09-06T03:26:48.563Z,20.80
2018-09-06T03:27:08.428Z,20.80
2018-09-06T03:27:28.765Z,21.40
2018-09-06T03:27:49.456Z,21.10
2018-09-06T03:28:09.308Z,21.10
2018-09-06T03:28:29.664Z,20.40
2018-09-06T03:28:50.363Z,20.50
2018-09-06T03:29:10.334Z,20.10
2018-09-06T03:29:30.697Z,20.50
2018-09-06T03:29:51.413Z,20.80
2018-09-06T03:30:11.510Z,21.50
2018-09-06T03:30:31.646Z,21.00
2018-09-06T03:30:51.778Z,21.10
2018-09-06T03:31:11.637Z,20.70
2018-09-06T03:31:31.992Z,20.50
2018-09-06T03:31:52.635Z,20.50
2018-09-06T03:32:12.529Z,20.90
2018-09-06T03:32:32.881Z,20.60
2018-09-06T03:32:53.539Z,20.70
2018-09-06T03:33:13.393Z,19.80
2018-09-06T03:33:34.086Z,20.40
2018-09-06T03:33:54.352Z,20.00
2018-09-06T03:34:14.212Z,20.30
2018-09-06T03:34:34.940Z,20.30
2018-09-06T03:34:54.786Z,20.30
2018-09-06T03:35:15.450Z,20.10
2018-09-06T03:35:35.694Z,20.40
2018-09-06T03:35:55.567Z,20.90
2018-09-06T03:36:16.025Z,20.60
2018-09-06T03:36:36.681Z,20.00
2018-09-06T03:36:56.556Z,19.80
2018-09-06T03:37:16.928Z,19.40
2018-09-06T03:37:37.571Z,19.20
2018-09-06T03:37:57.506Z,19.20
2018-09-06T03:38:38.149Z,19.60
2018-09-06T03:38:58.149Z,19.90
2018-09-06T03:39:18.119Z,20.10
2018-09-06T03:39:38.928Z,20.10
2018-09-06T03:39:58.774Z,19.20
2018-09-06T03:40:19.470Z,19.10
2018-09-06T03:40:39.316Z,19.60
2018-09-06T03:40:59.922Z,20.00
2018-09-06T03:41:20.127Z,20.00
2018-09-06T03:41:40.213Z,20.00
2018-09-06T03:42:00.066Z,19.60
2018-09-06T03:42:20.832Z,19.50
2018-09-06T03:42:40.688Z,19.90
2018-09-06T03:43:01.079Z,21.00
2018-09-06T03:43:21.751Z,21.70
2018-09-06T03:43:41.610Z,21.50
2018-09-06T03:44:02.205Z,21.20
2018-09-06T03:44:22.360Z,21.00
2018-09-06T03:44:42.279Z,20.70
2018-09-06T03:45:02.915Z,20.50
2018-09-06T03:45:23.081Z,19.50
2018-09-06T03:45:42.924Z,19.60
2018-09-06T03:46:03.635Z,19.70
2018-09-06T03:46:23.803Z,21.10
2018-09-06T03:46:43.725Z,21.60
2018-09-06T03:47:04.465Z,21.20
2018-09-06T03:47:24.445Z,20.60
2018-09-06T03:47:44.897Z,19.80
2018-09-06T03:48:05.555Z,19.60
2018-09-06T03:48:25.404Z,20.30
2018-09-06T03:48:45.760Z,20.60
2018-09-06T03:49:06.411Z,21.00
2018-09-06T03:49:26.265Z,20.70
2018-09-06T03:49:46.624Z,19.90
2018-09-06T03:50:07.325Z,20.30
2018-09-06T03:50:27.171Z,20.00
2018-09-06T03:50:47.526Z,20.70
2018-09-06T03:51:08.040Z,20.40
2018-09-06T03:51:27.889Z,20.40
2018-09-06T03:51:48.531Z,20.70
2018-09-06T03:52:08.417Z,20.50
2018-09-06T03:52:28.930Z,19.80
2018-09-06T03:52:49.128Z,19.60
2018-09-06T03:53:09.028Z,20.10
2018-09-06T03:53:29.409Z,21.00
2018-09-06T03:53:50.123Z,20.50
2018-09-06T03:54:09.969Z,19.70
2018-09-06T03:54:30.328Z,20.00
2018-09-06T03:54:50.976Z,20.90
2018-09-06T03:55:10.851Z,21.70
2018-09-06T03:55:31.216Z,21.90
2018-09-06T03:55:51.906Z,22.90
2018-09-06T03:56:11.875Z,22.80
2018-09-06T03:56:32.272Z,22.50
2018-09-06T03:56:52.917Z,21.20
2018-09-06T03:57:12.837Z,21.10
2018-09-06T03:57:33.443Z,20.50
2018-09-06T03:57:53.591Z,20.30
2018-09-06T03:58:13.433Z,20.30
2018-09-06T03:58:34.115Z,20.80
2018-09-06T03:58:54.186Z,21.00
2018-09-06T03:59:14.031Z,20.80
2018-09-06T03:59:34.713Z,20.60
2018-09-06T03:59:54.564Z,21.10
2018-09-06T04:00:15.194Z,21.10
2018-09-06T04:00:35.382Z,21.30
2018-09-06T04:00:55.347Z,21.20
2018-09-06T04:01:15.775Z,21.50
2018-09-06T04:01:36.438Z,21.70
2018-09-06T04:01:56.407Z,21.10
2018-09-06T04:02:16.795Z,20.50
2018-09-06T04:02:37.455Z,20.10
2018-09-06T04:02:57.327Z,20.20
2018-09-06T04:03:17.677Z,21.00
2018-09-06T04:03:38.331Z,20.50
2018-09-06T04:03:58.239Z,20.90
2018-09-06T04:04:18.905Z,19.80
2018-09-06T04:04:39.050Z,21.00
2018-09-06T04:04:58.969Z,21.20
2018-09-06T04:05:19.722Z,22.10
2018-09-06T04:05:39.606Z,21.90
2018-09-06T04:05:59.938Z,21.80
2018-09-06T04:06:20.627Z,21.90
2018-09-06T04:06:40.486Z,21.00
2018-09-06T04:07:00.833Z,20.60
2018-09-06T04:07:41.359Z,21.10
2018-09-06T04:08:01.209Z,21.00
2018-09-06T04:08:21.863Z,21.30
2018-09-06T04:08:41.925Z,20.70
2018-09-06T04:09:01.794Z,21.50
2018-09-06T04:09:22.447Z,21.70
2018-09-06T04:09:42.299Z,21.80
2018-09-06T04:10:03.015Z,22.30
2018-09-06T04:10:23.171Z,22.60
2018-09-06T04:10:43.020Z,22.40
2018-09-06T04:11:03.716Z,21.60
2018-09-06T04:11:23.857Z,21.70
2018-09-06T04:11:43.828Z,21.30
2018-09-06T04:12:04.534Z,21.80
2018-09-06T04:12:24.487Z,22.00
2018-09-06T04:12:44.994Z,22.30
2018-09-06T04:13:05.126Z,22.80
2018-09-06T04:13:25.054Z,22.10
2018-09-06T04:13:45.405Z,22.00
2018-09-06T04:14:06.105Z,21.60
2018-09-06T04:14:25.965Z,21.30
2018-09-06T04:14:46.619Z,22.40
2018-09-06T04:15:06.793Z,22.90
2018-09-06T04:15:26.644Z,23.20
2018-09-06T04:15:46.996Z,23.10
2018-09-06T04:16:07.641Z,23.10
2018-09-06T04:16:27.552Z,22.90
2018-09-06T04:16:47.912Z,22.20
2018-09-06T04:17:08.419Z,22.40
2018-09-06T04:17:28.279Z,21.90
2018-09-06T04:17:49.024Z,22.10
2018-09-06T04:18:09.236Z,21.80
2018-09-06T04:18:29.175Z,22.40
2018-09-06T04:18:49.847Z,22.30
2018-09-06T04:19:09.701Z,22.00
2018-09-06T04:19:30.267Z,21.90
2018-09-06T04:19:50.477Z,21.80
2018-09-06T04:20:10.497Z,22.10
2018-09-06T04:20:30.334Z,22.20
2018-09-06T04:20:50.984Z,22.80
2018-09-06T04:21:10.897Z,22.50
2018-09-06T04:21:31.280Z,22.10
2018-09-06T04:21:51.990Z,21.90
2018-09-06T04:22:11.894Z,22.00
2018-09-06T04:22:32.517Z,21.90
2018-09-06T04:22:52.669Z,22.20
2018-09-06T04:23:12.523Z,22.00
2018-09-06T04:23:32.878Z,22.10
2018-09-06T04:23:53.530Z,21.50